Time;durP1;ratioP1;P1;durP2;ratioP2;P2;SDS_P1;SDS_P2;PMS_P1;PMS_P2;Temp;Humidity;BMP_temperature;BMP_pressure;BME280_temperature;BME280_humidity;BME280_pressure;Samples;Min_cycle;Max_cycle;Signal;HPM_P1;HPM_P2
2023/01/23 00:03:14;;;;;;;72.17;39.03;;;0.90;99.90;;;;;;8268424;28;20197;-65
2023/01/23 00:07:15;;;;;;;66.57;35.50;;;0.90;99.90;;;;;;8264580;28;20210;-65
2023/01/23 00:11:21;;;;;;;62.60;33.67;;;0.90;99.90;;;;;;8269599;28;20187;-65
2023/01/23 00:15:22;;;;;;;48.90;26.87;;;0.90;99.90;;;;;;8261500;28;20313;-65
2023/01/23 00:19:23;;;;;;;56.60;29.50;;;0.90;99.90;;;;;;8258740;28;20207;-65
2023/01/23 00:23:24;;;;;;;51.17;25.60;;;1.00;99.90;;;;;;8266126;28;20176;-64
2023/01/23 00:27:25;;;;;;;58.77;27.77;;;0.90;99.90;;;;;;8264208;28;20195;-65
2023/01/23 00:31:32;;;;;;;67.27;32.27;;;0.90;99.90;;;;;;8263660;28;20205;-65
2023/01/23 00:35:35;;;;;;;63.73;30.17;;;0.90;99.90;;;;;;8262930;28;20241;-65
2023/01/23 00:39:36;;;;;;;62.90;29.47;;;0.90;99.90;;;;;;8266866;28;20211;-64
2023/01/23 00:43:37;;;;;;;55.03;25.70;;;1.00;99.90;;;;;;8267674;28;20233;-64
2023/01/23 00:47:38;;;;;;;51.13;27.50;;;1.00;99.90;;;;;;8269619;28;20183;-65
2023/01/23 00:51:39;;;;;;;54.03;26.50;;;1.00;99.90;;;;;;8265252;28;20191;-65
2023/01/23 00:55:41;;;;;;;62.73;31.60;;;1.00;99.90;;;;;;8263586;28;20516;-64
2023/01/23 00:59:41;;;;;;;53.00;26.83;;;1.00;99.90;;;;;;8263578;28;20184;-64
2023/01/23 01:03:43;;;;;;;58.27;31.07;;;1.00;99.90;;;;;;8268997;28;20187;-64
2023/01/23 01:07:44;;;;;;;62.23;34.03;;;1.00;99.90;;;;;;8271271;28;20199;-64
2023/01/23 01:11:45;;;;;;;66.87;32.13;;;1.00;99.90;;;;;;8269176;28;20186;-65
2023/01/23 01:15:53;;;;;;;60.80;27.07;;;1.00;99.90;;;;;;8268881;28;20219;-64
2023/01/23 01:19:54;;;;;;;49.17;25.30;;;0.90;99.90;;;;;;8283445;28;20188;-64
2023/01/23 01:23:55;;;;;;;54.13;26.87;;;1.00;99.90;;;;;;8270391;28;20230;-64
2023/01/23 01:27:55;;;;;;;69.83;33.90;;;1.00;99.90;;;;;;8268718;28;20195;-64
2023/01/23 01:31:56;;;;;;;59.83;30.60;;;0.90;99.90;;;;;;8266839;28;20215;-64
2023/01/23 01:35:57;;;;;;;60.90;33.10;;;0.90;99.90;;;;;;8272226;28;20222;-65
2023/01/23 01:39:58;;;;;;;69.53;34.60;;;0.90;99.90;;;;;;8274586;28;20227;-64
2023/01/23 01:43:59;;;;;;;62.13;30.50;;;0.90;99.90;;;;;;8267987;28;20183;-64
2023/01/23 01:48:00;;;;;;;52.27;24.53;;;0.90;99.90;;;;;;8269072;28;20480;-64
2023/01/23 01:52:12;;;;;;;48.03;26.27;;;0.90;99.90;;;;;;8273805;28;20183;-65
2023/01/23 01:56:14;;;;;;;50.30;28.00;;;0.90;99.90;;;;;;8267914;28;20203;-65
2023/01/23 02:00:17;;;;;;;58.87;28.87;;;0.90;99.90;;;;;;8270010;28;20282;-65
2023/01/23 02:04:18;;;;;;;57.03;27.33;;;0.90;99.90;;;;;;8265407;28;20219;-64
2023/01/23 02:08:25;;;;;;;60.47;28.07;;;0.90;99.90;;;;;;8264336;28;20269;-64
2023/01/23 02:12:27;;;;;;;53.17;26.67;;;0.90;99.90;;;;;;8265070;28;20194;-65
2023/01/23 02:16:31;;;;;;;56.70;27.23;;;0.90;99.90;;;;;;8266785;28;20207;-64
2023/01/23 02:20:32;;;;;;;58.03;27.23;;;0.90;99.90;;;;;;8267155;28;20202;-64
2023/01/23 02:24:42;;;;;;;58.27;28.10;;;1.00;99.90;;;;;;8267050;28;20211;-64
2023/01/23 02:28:46;;;;;;;48.03;25.93;;;1.00;99.90;;;;;;8266925;28;20184;-63
2023/01/23 02:32:47;;;;;;;61.17;30.20;;;0.90;99.90;;;;;;8273412;28;20184;-63
2023/01/23 02:36:48;;;;;;;56.13;27.50;;;0.90;99.90;;;;;;8268409;28;20207;-64
2023/01/23 02:40:51;;;;;;;57.37;31.50;;;0.90;99.90;;;;;;8266738;28;20206;-64
2023/01/23 02:44:54;;;;;;;55.20;26.70;;;0.90;99.90;;;;;;8267037;28;20584;-64
2023/01/23 02:48:55;;;;;;;51.23;25.23;;;0.90;99.90;;;;;;8269183;28;20192;-65
2023/01/23 02:52:57;;;;;;;49.20;25.23;;;0.90;99.90;;;;;;8268231;28;20195;-65
2023/01/23 02:56:58;;;;;;;51.80;25.13;;;0.90;99.90;;;;;;8270619;28;20348;-65
2023/01/23 03:00:59;;;;;;;51.83;24.77;;;0.90;99.90;;;;;;8270191;28;20297;-70
2023/01/23 03:05:00;;;;;;;51.50;24.83;;;0.90;99.90;;;;;;8265837;28;20196;-64
2023/01/23 03:09:04;;;;;;;46.43;22.83;;;0.90;99.90;;;;;;8265189;28;20573;-65
2023/01/23 03:13:06;;;;;;;50.80;25.20;;;0.80;99.90;;;;;;8264906;28;20191;-65
2023/01/23 03:17:07;;;;;;;52.60;25.40;;;0.90;99.90;;;;;;8263429;28;20203;-65
2023/01/23 03:21:07;;;;;;;51.63;24.50;;;0.90;99.90;;;;;;8269172;28;20176;-64
2023/01/23 03:25:08;;;;;;;53.17;26.20;;;0.90;99.90;;;;;;8266613;28;20180;-65
2023/01/23 03:33:42;;;;;;;49.03;24.03;;;0.90;99.90;;;;;;8261550;28;20195;-64
2023/01/23 03:37:43;;;;;;;44.13;22.03;;;0.90;99.90;;;;;;8271427;28;20613;-65
2023/01/23 03:41:44;;;;;;;60.70;25.20;;;0.90;99.90;;;;;;8265877;28;20243;-65
2023/01/23 03:45:45;;;;;;;53.13;24.30;;;0.90;99.90;;;;;;8269255;28;20183;-65
2023/01/23 03:49:46;;;;;;;53.03;24.63;;;0.80;99.90;;;;;;8266965;28;20194;-64
2023/01/23 03:53:46;;;;;;;51.77;23.13;;;0.80;99.90;;;;;;8260219;28;20263;-65
2023/01/23 03:57:47;;;;;;;47.17;23.63;;;0.80;99.90;;;;;;8265783;28;20211;-65
2023/01/23 04:01:48;;;;;;;49.13;24.97;;;0.80;99.90;;;;;;8266091;28;20179;-65
2023/01/23 04:05:54;;;;;;;57.03;24.80;;;0.80;99.90;;;;;;8264609;28;20574;-66
2023/01/23 04:09:55;;;;;;;57.93;24.67;;;0.80;99.90;;;;;;8267191;28;20175;-65
2023/01/23 04:13:56;;;;;;;53.43;25.20;;;0.80;99.90;;;;;;8260989;28;20203;-65
2023/01/23 04:17:57;;;;;;;47.77;24.27;;;0.80;99.90;;;;;;8264216;28;20241;-65
2023/01/23 04:21:58;;;;;;;44.93;22.03;;;0.80;99.90;;;;;;8266185;28;20183;-65
2023/01/23 04:25:59;;;;;;;42.50;21.80;;;0.80;99.90;;;;;;8264609;28;20184;-65
2023/01/23 04:29:59;;;;;;;56.20;23.87;;;0.80;99.90;;;;;;8262058;28;20214;-65
2023/01/23 04:34:00;;;;;;;46.07;22.37;;;0.80;99.90;;;;;;8269381;28;20249;-65
2023/01/23 04:38:01;;;;;;;49.13;23.67;;;0.80;99.90;;;;;;8263407;28;20207;-65
2023/01/23 04:42:02;;;;;;;46.37;23.40;;;0.80;99.90;;;;;;8267191;28;20256;-65
2023/01/23 04:46:03;;;;;;;50.73;24.67;;;0.90;99.90;;;;;;8262246;28;20191;-66
2023/01/23 04:50:04;;;;;;;60.00;27.00;;;0.80;99.90;;;;;;8265157;28;20179;-66
2023/01/23 04:54:05;;;;;;;55.33;27.03;;;0.80;99.90;;;;;;8261338;28;20290;-65
2023/01/23 04:58:06;;;;;;;55.40;26.00;;;0.80;99.90;;;;;;8268203;28;20184;-66
2023/01/23 05:02:07;;;;;;;49.90;23.40;;;0.80;99.90;;;;;;8261617;28;20187;-66
2023/01/23 05:06:08;;;;;;;55.53;27.10;;;0.80;99.90;;;;;;8277016;28;20219;-65
2023/01/23 05:10:09;;;;;;;57.97;25.87;;;0.80;99.90;;;;;;8260718;28;20215;-65
2023/01/23 05:14:11;;;;;;;69.43;30.77;;;0.80;99.90;;;;;;8264590;28;20196;-65
2023/01/23 05:18:11;;;;;;;64.73;30.90;;;0.80;99.90;;;;;;8263189;28;20199;-65
2023/01/23 05:22:12;;;;;;;72.13;33.90;;;0.80;99.90;;;;;;8258023;28;20275;-65
2023/01/23 05:26:13;;;;;;;60.83;29.10;;;0.80;99.90;;;;;;8260059;28;20183;-65
2023/01/23 05:30:14;;;;;;;62.53;27.77;;;0.80;99.90;;;;;;8264622;28;20445;-65
2023/01/23 05:34:15;;;;;;;56.43;27.00;;;0.80;99.90;;;;;;8266648;28;20228;-66
2023/01/23 05:38:15;;;;;;;51.83;25.13;;;0.80;99.90;;;;;;8268547;28;20216;-65
2023/01/23 05:42:16;;;;;;;62.33;29.00;;;0.80;99.90;;;;;;8269273;28;20196;-65
2023/01/23 05:46:17;;;;;;;58.83;26.40;;;0.80;99.90;;;;;;8269957;28;20296;-65
2023/01/23 05:50:21;;;;;;;54.97;25.23;;;0.80;99.90;;;;;;8272970;28;20203;-64
2023/01/23 05:54:22;;;;;;;57.33;28.57;;;0.80;99.90;;;;;;8268689;28;20223;-65
2023/01/23 05:58:22;;;;;;;64.17;29.27;;;0.80;99.90;;;;;;8266645;28;20202;-65
2023/01/23 06:02:23;;;;;;;61.40;30.00;;;0.80;99.90;;;;;;8268152;28;20612;-65
2023/01/23 06:06:24;;;;;;;59.57;27.37;;;0.80;99.90;;;;;;8268542;28;20191;-66
2023/01/23 06:10:25;;;;;;;58.67;27.30;;;0.80;99.90;;;;;;8266036;28;20230;-65
2023/01/23 06:14:25;;;;;;;68.97;28.97;;;0.80;99.90;;;;;;8270122;28;20219;-65
2023/01/23 06:18:26;;;;;;;82.40;37.03;;;0.80;99.90;;;;;;8272331;28;20282;-66
2023/01/23 06:22:27;;;;;;;63.33;32.47;;;0.80;99.90;;;;;;8265764;28;20237;-65
2023/01/23 06:26:28;;;;;;;73.27;36.50;;;0.70;99.90;;;;;;8265586;28;20191;-65
2023/01/23 06:30:29;;;;;;;82.30;41.60;;;0.70;99.90;;;;;;8269750;28;20212;-64
2023/01/23 06:34:30;;;;;;;78.23;36.40;;;0.80;99.90;;;;;;8272105;28;20292;-66
2023/01/23 06:38:31;;;;;;;68.27;33.10;;;0.80;99.90;;;;;;8265439;28;20234;-65
2023/01/23 06:42:32;;;;;;;76.10;34.70;;;0.80;99.90;;;;;;8266074;28;20183;-65
2023/01/23 06:46:33;;;;;;;74.80;31.43;;;0.80;99.90;;;;;;8270488;28;20199;-66
2023/01/23 06:50:34;;;;;;;82.30;35.10;;;0.80;99.90;;;;;;8264151;28;20187;-65
2023/01/23 06:54:34;;;;;;;65.13;29.23;;;0.80;99.90;;;;;;8264603;28;20211;-66
2023/01/23 06:58:37;;;;;;;75.17;30.20;;;0.80;99.90;;;;;;8268428;28;20211;-65
2023/01/23 07:02:38;;;;;;;65.00;28.47;;;0.80;99.90;;;;;;8273231;28;20341;-65
2023/01/23 07:06:39;;;;;;;130.07;54.17;;;0.80;99.90;;;;;;8268493;28;20191;-65
2023/01/23 07:10:40;;;;;;;87.80;35.87;;;0.80;99.90;;;;;;8266242;28;20289;-65
2023/01/23 07:14:41;;;;;;;75.00;31.73;;;0.80;99.90;;;;;;8262730;28;20265;-66
2023/01/23 07:18:42;;;;;;;87.37;35.80;;;0.80;99.90;;;;;;8266784;28;20191;-65
2023/01/23 07:22:43;;;;;;;76.77;32.97;;;0.90;99.90;;;;;;8272544;28;20187;-66
2023/01/23 07:26:44;;;;;;;100.17;36.87;;;0.80;99.90;;;;;;8265114;28;20281;-66
2023/01/23 07:30:46;;;;;;;85.73;36.57;;;0.80;99.90;;;;;;8265686;28;20205;-66
2023/01/23 07:34:47;;;;;;;73.73;32.87;;;0.90;99.90;;;;;;8262965;28;20243;-66
2023/01/23 07:38:47;;;;;;;76.03;30.80;;;0.90;99.90;;;;;;8265845;28;20207;-66
2023/01/23 07:42:48;;;;;;;74.07;30.07;;;0.90;99.90;;;;;;8266815;28;20222;-66
2023/01/23 07:46:49;;;;;;;80.67;33.07;;;1.00;99.90;;;;;;8263850;28;20238;-66
2023/01/23 07:50:49;;;;;;;82.13;35.23;;;1.00;99.90;;;;;;8270442;28;20266;-67
2023/01/23 07:54:50;;;;;;;71.27;31.30;;;1.00;99.90;;;;;;8262004;28;20285;-66
2023/01/23 07:58:51;;;;;;;64.40;28.20;;;1.00;99.90;;;;;;8267685;28;20187;-66
2023/01/23 08:02:52;;;;;;;74.57;30.53;;;1.00;99.90;;;;;;8264306;28;20184;-66
2023/01/23 08:06:53;;;;;;;72.97;32.67;;;1.00;99.90;;;;;;8265648;28;20200;-66
2023/01/23 08:10:53;;;;;;;61.93;27.20;;;1.10;99.90;;;;;;8268551;28;20373;-66
2023/01/23 08:14:54;;;;;;;60.27;28.60;;;1.00;99.90;;;;;;8263673;28;20332;-66
2023/01/23 08:18:55;;;;;;;73.80;31.07;;;1.10;99.90;;;;;;8266436;28;20198;-66
2023/01/23 08:22:57;;;;;;;81.00;35.37;;;1.10;99.90;;;;;;8268572;28;20183;-66
2023/01/23 08:26:58;;;;;;;74.10;32.73;;;1.10;99.90;;;;;;8259313;28;20240;-66
2023/01/23 08:31:04;;;;;;;78.83;33.27;;;1.20;99.90;;;;;;8266075;28;20205;-66
2023/01/23 08:35:06;;;;;;;69.33;30.73;;;1.20;99.90;;;;;;8264114;28;20218;-66
2023/01/23 08:39:06;;;;;;;71.07;31.83;;;1.20;99.90;;;;;;8268004;28;20253;-66
2023/01/23 08:43:09;;;;;;;88.90;38.13;;;1.20;99.90;;;;;;8262344;28;20184;-66
2023/01/23 08:47:10;;;;;;;94.80;38.93;;;1.20;99.90;;;;;;8264869;28;20195;-66
2023/01/23 08:51:12;;;;;;;90.13;35.77;;;1.30;99.90;;;;;;8263461;28;20270;-66
2023/01/23 08:55:13;;;;;;;175.27;101.27;;;1.30;99.90;;;;;;8269475;28;20222;-66
2023/01/23 08:59:14;;;;;;;94.87;51.60;;;1.30;99.90;;;;;;8261018;28;20196;-66
2023/01/23 09:03:15;;;;;;;95.23;45.30;;;1.40;99.90;;;;;;8263716;28;20191;-66
2023/01/23 09:07:15;;;;;;;77.43;33.03;;;1.40;99.90;;;;;;8267547;28;20221;-65
2023/01/23 09:11:17;;;;;;;77.37;33.60;;;1.50;99.90;;;;;;8260222;28;20195;-66
2023/01/23 09:15:19;;;;;;;63.50;28.17;;;1.60;99.90;;;;;;8264119;28;20214;-67
2023/01/23 09:19:19;;;;;;;73.73;31.17;;;1.70;99.90;;;;;;8265490;28;20513;-66
2023/01/23 09:23:21;;;;;;;73.67;31.93;;;1.70;99.90;;;;;;8277380;28;20274;-66
2023/01/23 09:27:21;;;;;;;66.93;29.60;;;1.80;99.90;;;;;;8270310;28;20196;-65
2023/01/23 09:31:22;;;;;;;60.60;27.23;;;1.80;99.90;;;;;;8269244;28;20199;-67
2023/01/23 09:35:23;;;;;;;69.17;29.17;;;1.80;99.90;;;;;;8268598;28;20228;-67
2023/01/23 09:39:24;;;;;;;91.77;38.63;;;1.80;99.90;;;;;;8270403;28;20238;-66
2023/01/23 09:43:31;;;;;;;80.67;35.93;;;1.80;99.90;;;;;;8273170;28;20240;-66
2023/01/23 09:48:19;;;;;;;67.23;29.20;;;1.90;99.90;;;;;;8274742;28;20207;-65
2023/01/23 09:52:27;;;;;;;61.50;27.63;;;1.90;99.90;;;;;;8264469;28;20206;-66
2023/01/23 09:56:43;;;;;;;58.83;27.20;;;2.00;99.90;;;;;;8286251;28;20235;-67
2023/01/23 10:00:45;;;;;;;54.17;27.10;;;2.00;99.90;;;;;;8271642;28;20196;-66
2023/01/23 10:04:52;;;;;;;60.50;28.13;;;2.00;99.90;;;;;;8267298;28;20986;-66
2023/01/23 10:09:11;;;;;;;73.07;31.93;;;2.00;99.90;;;;;;8263206;28;20202;-66
2023/01/23 10:13:22;;;;;;;59.50;26.33;;;2.00;99.90;;;;;;8270567;28;20195;-66
2023/01/23 10:17:36;;;;;;;57.03;27.13;;;2.10;99.90;;;;;;8266428;28;20300;-66
2023/01/23 10:21:55;;;;;;;119.50;48.40;;;2.10;99.90;;;;;;8267516;28;20192;-66
2023/01/23 10:25:57;;;;;;;123.27;47.83;;;2.10;99.90;;;;;;8264189;28;20543;-66
2023/01/23 10:30:16;;;;;;;74.70;33.10;;;2.20;99.90;;;;;;8274368;28;20286;-66
2023/01/23 10:34:46;;;;;;;60.27;27.67;;;2.30;99.90;;;;;;8265805;28;20314;-66
2023/01/23 10:38:50;;;;;;;73.93;33.63;;;2.30;99.90;;;;;;8270434;28;20322;-66
2023/01/23 10:42:50;;;;;;;69.27;31.67;;;2.40;99.90;;;;;;8268646;28;20800;-67
2023/01/23 10:46:59;;;;;;;85.00;40.57;;;2.40;99.90;;;;;;8264888;28;20295;-66
2023/01/23 10:51:00;;;;;;;165.53;100.87;;;2.40;99.90;;;;;;8264615;28;20215;-67
2023/01/23 10:55:03;;;;;;;66.47;33.10;;;2.40;99.90;;;;;;8272115;28;20207;-66
2023/01/23 10:59:05;;;;;;;81.47;42.83;;;2.40;99.90;;;;;;8265232;28;20454;-65
2023/01/23 11:03:21;;;;;;;59.70;28.70;;;2.40;99.90;;;;;;8274874;28;20179;-66
2023/01/23 11:07:27;;;;;;;58.40;30.00;;;2.50;99.90;;;;;;8271238;28;20242;-66
2023/01/23 11:11:31;;;;;;;63.13;31.57;;;2.50;99.90;;;;;;8268107;28;20200;-66
2023/01/23 11:15:39;;;;;;;63.03;28.87;;;2.60;99.90;;;;;;8267490;28;20207;-66
2023/01/23 11:19:41;;;;;;;55.87;27.80;;;2.60;99.90;;;;;;8273322;28;20194;-66
2023/01/23 11:23:42;;;;;;;53.83;27.33;;;2.70;99.90;;;;;;8269103;28;20188;-66
2023/01/23 11:27:59;;;;;;;51.40;26.90;;;2.70;99.90;;;;;;8265595;28;20203;-66
2023/01/23 11:32:11;;;;;;;57.47;28.13;;;2.70;99.90;;;;;;8264781;28;20207;-66
2023/01/23 11:36:18;;;;;;;79.63;38.63;;;2.60;99.90;;;;;;8264467;28;20230;-66
2023/01/23 11:40:19;;;;;;;52.87;26.90;;;2.60;99.90;;;;;;8263182;28;20192;-66
2023/01/23 11:44:21;;;;;;;65.77;30.67;;;2.60;99.90;;;;;;8266034;28;20195;-66
2023/01/23 11:49:05;;;;;;;52.50;27.53;;;2.50;99.90;;;;;;8268198;28;20195;-66
2023/01/23 11:53:30;;;;;;;70.50;34.60;;;2.60;99.90;;;;;;8271492;28;20188;-69
2023/01/23 11:57:31;;;;;;;92.13;44.63;;;2.60;99.90;;;;;;8268984;28;20306;-65
2023/01/23 12:01:58;;;;;;;82.57;39.23;;;2.60;99.90;;;;;;8270656;28;20188;-65
2023/01/23 12:06:12;;;;;;;88.07;39.90;;;2.60;99.90;;;;;;8263110;28;20203;-66
2023/01/23 12:10:29;;;;;;;67.43;34.47;;;2.60;99.90;;;;;;8262945;28;20184;-65
2023/01/23 12:14:34;;;;;;;69.13;33.73;;;2.70;99.90;;;;;;8270668;28;20219;-65
2023/01/23 12:18:50;;;;;;;63.93;29.70;;;2.70;99.90;;;;;;8268876;28;20443;-65
2023/01/23 12:23:21;;;;;;;82.27;37.63;;;2.70;99.90;;;;;;8264613;28;20191;-66
2023/01/23 12:27:28;;;;;;;68.37;36.57;;;2.70;99.90;;;;;;8264594;28;20203;-66
2023/01/23 12:31:50;;;;;;;61.17;29.40;;;2.60;99.90;;;;;;8262424;28;20495;-66
2023/01/23 12:36:13;;;;;;;69.37;34.50;;;2.60;99.90;;;;;;8260083;28;20301;-65
2023/01/23 12:40:34;;;;;;;66.77;33.10;;;2.50;99.90;;;;;;8264515;28;20250;-66
2023/01/23 12:44:50;;;;;;;89.57;40.03;;;2.60;99.90;;;;;;8265007;28;20205;-65
2023/01/23 12:49:21;;;;;;;70.40;32.37;;;2.60;99.90;;;;;;8266250;28;20188;-66
2023/01/23 12:53:22;;;;;;;91.87;38.30;;;2.50;99.90;;;;;;8271558;28;20203;-65
2023/01/23 12:57:38;;;;;;;75.00;36.50;;;2.40;99.90;;;;;;8272099;28;20253;-65
2023/01/23 13:01:57;;;;;;;79.17;36.27;;;2.40;99.90;;;;;;8268521;28;20242;-65
2023/01/23 13:06:00;;;;;;;70.77;36.20;;;2.30;99.90;;;;;;8276829;28;21619;-66
2023/01/23 13:10:10;;;;;;;75.57;35.20;;;2.30;99.90;;;;;;8272488;28;20424;-65
2023/01/23 13:14:41;;;;;;;78.80;38.77;;;2.20;99.90;;;;;;8277123;28;20318;-66
2023/01/23 13:23:25;;;;;;;62.30;31.30;;;2.20;99.90;;;;;;8272642;28;20195;-66
2023/01/23 13:27:54;;;;;;;60.00;29.73;;;2.10;99.90;;;;;;8276948;28;20254;-65
2023/01/23 13:32:22;;;;;;;60.63;31.70;;;2.10;99.90;;;;;;8275589;28;20196;-67
2023/01/23 13:36:32;;;;;;;63.97;32.67;;;2.00;99.90;;;;;;8275500;28;20220;-66
2023/01/23 13:40:33;;;;;;;66.80;32.23;;;2.00;99.90;;;;;;8277568;28;20222;-65
2023/01/23 13:44:39;;;;;;;62.03;31.83;;;2.00;99.90;;;;;;8273960;28;20187;-66
2023/01/23 13:57:45;;;;;;;64.57;31.60;;;1.80;99.90;;;;;;8270020;28;20311;-67
2023/01/23 14:06:43;;;;;;;64.03;31.80;;;1.70;99.90;;;;;;8268828;28;20488;-66
2023/01/23 14:10:47;;;;;;;67.70;32.43;;;1.70;99.90;;;;;;8266417;28;20191;-66
2023/01/23 14:19:27;;;;;;;78.00;36.43;;;1.60;99.90;;;;;;8271880;28;20245;-66
2023/01/23 14:23:29;;;;;;;68.83;33.43;;;1.60;99.90;;;;;;8270659;28;20190;-66
2023/01/23 14:27:36;;;;;;;73.60;35.77;;;1.60;99.90;;;;;;8272752;28;20192;-66
2023/01/23 14:31:41;;;;;;;79.13;41.97;;;1.50;99.90;;;;;;8267516;28;20466;-66
2023/01/23 14:35:42;;;;;;;86.30;44.13;;;1.50;99.90;;;;;;8269465;28;20222;-66
2023/01/23 14:39:48;;;;;;;92.97;49.23;;;1.50;99.90;;;;;;8274620;28;20199;-66
2023/01/23 14:43:52;;;;;;;79.37;41.43;;;1.50;99.90;;;;;;8266264;28;20196;-66
2023/01/23 14:47:53;;;;;;;81.13;39.67;;;1.50;99.90;;;;;;8270144;28;20183;-66
2023/01/23 14:51:56;;;;;;;75.93;35.03;;;1.40;99.90;;;;;;8268049;28;20303;-66
2023/01/23 14:56:00;;;;;;;71.30;34.17;;;1.40;99.90;;;;;;8265597;28;20298;-66
2023/01/23 15:00:02;;;;;;;71.73;34.43;;;1.40;99.90;;;;;;8264001;28;20193;-67
2023/01/23 15:04:06;;;;;;;71.73;37.07;;;1.30;99.90;;;;;;8263402;28;20754;-66
2023/01/23 15:08:30;;;;;;;63.07;33.27;;;1.30;99.90;;;;;;8269292;28;20183;-66
2023/01/23 15:12:31;;;;;;;71.87;34.17;;;1.30;99.90;;;;;;8266450;28;20186;-66
2023/01/23 15:16:34;;;;;;;69.50;34.77;;;1.30;99.90;;;;;;8263956;28;20481;-66
2023/01/23 15:20:41;;;;;;;72.53;35.60;;;1.20;99.90;;;;;;8271910;28;20197;-66
2023/01/23 15:24:43;;;;;;;94.07;42.47;;;1.20;99.90;;;;;;8265957;28;20263;-66
2023/01/23 15:28:46;;;;;;;80.00;38.97;;;1.20;99.90;;;;;;8263706;28;20199;-67
2023/01/23 15:32:47;;;;;;;93.30;43.33;;;1.20;99.90;;;;;;8264434;28;20311;-66
2023/01/23 15:37:05;;;;;;;80.07;38.23;;;1.20;99.90;;;;;;8268942;28;20223;-66
2023/01/23 15:41:09;;;;;;;76.33;37.37;;;1.10;99.90;;;;;;8267795;28;20203;-66
2023/01/23 15:45:13;;;;;;;83.27;39.67;;;1.10;99.90;;;;;;8263346;28;20595;-67
2023/01/23 15:49:14;;;;;;;78.00;37.40;;;1.10;99.90;;;;;;8261898;28;20184;-67
2023/01/23 15:53:15;;;;;;;90.33;42.00;;;1.20;99.90;;;;;;8263233;28;20198;-67
2023/01/23 15:57:16;;;;;;;85.00;38.97;;;1.20;99.90;;;;;;8271378;28;20471;-66
2023/01/23 16:01:17;;;;;;;100.73;48.00;;;1.10;99.90;;;;;;8269638;28;20191;-67
2023/01/23 16:05:23;;;;;;;102.13;46.50;;;1.10;99.90;;;;;;8266260;28;20217;-67
2023/01/23 16:09:31;;;;;;;91.10;45.47;;;1.10;99.90;;;;;;8268693;28;20180;-67
2023/01/23 16:13:32;;;;;;;88.23;42.70;;;1.10;99.90;;;;;;8278210;28;20195;-67
2023/01/23 16:17:34;;;;;;;128.20;57.70;;;1.10;99.90;;;;;;8266184;28;20231;-67
2023/01/23 16:21:35;;;;;;;102.77;50.77;;;1.10;99.90;;;;;;8265016;28;20202;-65
2023/01/23 16:25:41;;;;;;;89.67;43.40;;;1.10;99.90;;;;;;8261487;28;20187;-66
2023/01/23 16:29:42;;;;;;;86.70;40.63;;;1.20;99.90;;;;;;8264999;28;20211;-67
2023/01/23 16:33:43;;;;;;;96.70;47.13;;;1.10;99.90;;;;;;8271393;28;20264;-67
2023/01/23 16:37:47;;;;;;;97.53;44.37;;;1.10;99.90;;;;;;8266596;28;20449;-67
2023/01/23 16:41:48;;;;;;;127.10;55.00;;;1.20;99.90;;;;;;8266781;28;20207;-66
2023/01/23 16:45:50;;;;;;;119.17;50.37;;;1.20;99.90;;;;;;8265111;28;20192;-66
2023/01/23 16:49:51;;;;;;;123.77;51.77;;;1.20;99.90;;;;;;8270383;28;20211;-67
2023/01/23 16:53:56;;;;;;;121.27;52.70;;;1.10;99.90;;;;;;8267020;28;20183;-67
2023/01/23 16:57:59;;;;;;;139.47;63.00;;;1.10;99.90;;;;;;8261145;28;20211;-66
2023/01/23 17:02:04;;;;;;;99.93;47.27;;;1.10;99.90;;;;;;8259800;28;20581;-67
2023/01/23 17:06:10;;;;;;;89.40;39.13;;;1.10;99.90;;;;;;8268917;28;20431;-68
2023/01/23 17:10:19;;;;;;;87.40;40.93;;;1.10;99.90;;;;;;8263643;28;20215;-66
2023/01/23 17:14:27;;;;;;;127.37;50.00;;;1.10;99.90;;;;;;8265967;28;20194;-66
2023/01/23 17:18:32;;;;;;;127.30;51.73;;;1.10;99.90;;;;;;8262543;28;20198;-68
2023/01/23 17:22:37;;;;;;;146.23;59.37;;;1.10;99.90;;;;;;8263429;28;20243;-66
2023/01/23 17:26:38;;;;;;;116.00;52.40;;;1.10;99.90;;;;;;8265256;28;20184;-67
2023/01/23 17:30:40;;;;;;;113.83;51.83;;;1.10;99.90;;;;;;8265436;28;20215;-66
2023/01/23 17:34:41;;;;;;;614.07;398.83;;;1.10;99.90;;;;;;8264657;28;20286;-65
2023/01/23 17:38:42;;;;;;;195.87;83.47;;;1.10;99.90;;;;;;8263433;28;20283;-66
2023/01/23 17:42:43;;;;;;;181.83;81.17;;;1.10;99.90;;;;;;8273100;28;20184;-65
2023/01/23 17:46:45;;;;;;;120.83;52.50;;;1.10;99.90;;;;;;8272518;28;20192;-66
2023/01/23 17:50:45;;;;;;;99.23;41.03;;;1.10;99.90;;;;;;8275033;28;20183;-66
2023/01/23 17:54:48;;;;;;;107.20;49.93;;;1.10;99.90;;;;;;8271078;28;20233;-66
2023/01/23 17:58:49;;;;;;;152.53;61.07;;;1.10;99.90;;;;;;8265507;28;20184;-66
2023/01/23 18:03:00;;;;;;;99.47;45.33;;;1.10;99.90;;;;;;8269950;28;20183;-66
2023/01/23 18:07:01;;;;;;;107.17;50.97;;;1.00;99.90;;;;;;8274165;28;20295;-66
2023/01/23 18:11:02;;;;;;;107.53;47.37;;;1.10;99.90;;;;;;8269600;28;20203;-66
2023/01/23 18:15:34;;;;;;;110.97;45.97;;;1.10;99.90;;;;;;8272298;28;20670;-66
2023/01/23 18:19:35;;;;;;;109.90;46.73;;;1.10;99.90;;;;;;8266537;28;20239;-67
2023/01/23 18:23:36;;;;;;;87.87;39.97;;;1.10;99.90;;;;;;8274575;28;20198;-67
2023/01/23 18:27:40;;;;;;;95.93;40.40;;;1.00;99.90;;;;;;8272539;28;20206;-67
2023/01/23 18:32:01;;;;;;;99.00;40.10;;;1.00;99.90;;;;;;8269848;28;20191;-67
2023/01/23 18:36:36;;;;;;;102.03;40.67;;;1.00;99.90;;;;;;8270364;28;20211;-67
2023/01/23 18:40:49;;;;;;;93.03;39.93;;;1.10;99.90;;;;;;8267277;28;20612;-67
2023/01/23 18:44:53;;;;;;;101.80;41.03;;;1.00;99.90;;;;;;8272340;28;20210;-67
2023/01/23 18:48:54;;;;;;;124.73;49.70;;;1.00;99.90;;;;;;8274613;28;20201;-67
2023/01/23 18:53:25;;;;;;;95.23;38.57;;;1.00;99.90;;;;;;8269860;28;20183;-67
2023/01/23 18:57:49;;;;;;;109.20;42.67;;;1.00;99.90;;;;;;8265235;28;20454;-67
2023/01/23 19:01:56;;;;;;;101.13;41.40;;;1.00;99.90;;;;;;8270003;28;20192;-67
2023/01/23 19:05:57;;;;;;;93.33;39.03;;;1.00;99.90;;;;;;8272289;28;20295;-66
2023/01/23 19:09:58;;;;;;;87.80;35.83;;;1.00;99.90;;;;;;8273974;28;20196;-66
2023/01/23 19:14:23;;;;;;;88.03;40.43;;;1.00;99.90;;;;;;8269705;28;20187;-67
2023/01/23 19:19:13;;;;;;;107.70;42.80;;;1.00;99.90;;;;;;8271325;28;20199;-65
2023/01/23 19:23:34;;;;;;;97.50;39.53;;;1.00;99.90;;;;;;8259233;28;20195;-67
2023/01/23 19:27:35;;;;;;;100.70;39.77;;;1.00;99.90;;;;;;8272259;28;20234;-67
2023/01/23 19:31:38;;;;;;;96.20;39.00;;;1.00;99.90;;;;;;8272832;28;20277;-66
2023/01/23 19:35:39;;;;;;;114.43;46.67;;;1.00;99.90;;;;;;8271733;28;20218;-66
2023/01/23 19:39:40;;;;;;;95.27;41.67;;;1.00;99.90;;;;;;8260187;28;20313;-66
2023/01/23 19:43:41;;;;;;;115.23;46.93;;;1.00;99.90;;;;;;8265195;28;20183;-67
2023/01/23 19:47:42;;;;;;;94.67;40.97;;;1.00;99.90;;;;;;8271463;28;20187;-66
2023/01/23 19:51:43;;;;;;;93.67;39.07;;;1.00;99.90;;;;;;8263890;28;20198;-66
2023/01/23 19:55:44;;;;;;;95.10;41.07;;;1.00;99.90;;;;;;8265947;28;20632;-66
2023/01/23 19:59:45;;;;;;;96.90;38.27;;;1.00;99.90;;;;;;8263158;28;20184;-66
2023/01/23 20:03:46;;;;;;;98.13;41.07;;;1.00;99.90;;;;;;8277577;28;20184;-65
2023/01/23 20:07:48;;;;;;;100.27;38.13;;;1.00;99.90;;;;;;8265745;28;20191;-65
2023/01/23 20:11:50;;;;;;;91.67;36.60;;;1.00;99.90;;;;;;8264750;28;20175;-65
2023/01/23 20:15:51;;;;;;;113.20;40.87;;;1.00;99.90;;;;;;8260634;28;20219;-65
2023/01/23 20:19:52;;;;;;;113.07;44.17;;;1.00;99.90;;;;;;8262777;28;20172;-66
2023/01/23 20:23:52;;;;;;;104.53;43.73;;;1.00;99.90;;;;;;8264151;28;20183;-66
2023/01/23 20:27:53;;;;;;;115.17;42.77;;;1.00;99.90;;;;;;8258013;28;20187;-66
2023/01/23 20:31:54;;;;;;;99.67;39.37;;;1.00;99.90;;;;;;8260877;28;20195;-66
2023/01/23 20:35:55;;;;;;;112.70;42.93;;;1.00;99.90;;;;;;8270075;28;20215;-66
2023/01/23 20:39:56;;;;;;;100.63;40.07;;;1.00;99.90;;;;;;8270846;28;20423;-66
2023/01/23 20:43:57;;;;;;;97.43;36.03;;;1.00;99.90;;;;;;8265412;28;20233;-66
2023/01/23 20:47:57;;;;;;;109.93;42.87;;;1.00;99.90;;;;;;8265010;28;20199;-66
2023/01/23 20:53:28;;;;;;;106.50;41.43;;;1.00;99.90;;;;;;8267365;28;20273;-65
2023/01/23 20:56:26;;;;;;;107.53;42.00;;;1.00;99.90;;;;;;8266213;28;20223;-66
2023/01/23 21:00:27;;;;;;;100.87;39.53;;;1.00;99.90;;;;;;8267510;28;20187;-67
2023/01/23 21:04:31;;;;;;;98.77;41.37;;;1.00;99.90;;;;;;8267450;28;20180;-66
2023/01/23 21:08:33;;;;;;;113.47;45.37;;;1.00;99.90;;;;;;8267187;28;20249;-66
2023/01/23 21:12:34;;;;;;;105.53;41.50;;;1.00;99.90;;;;;;8263254;28;20184;-66
2023/01/23 21:16:35;;;;;;;105.53;43.03;;;1.00;99.90;;;;;;8268105;28;20222;-66
2023/01/23 21:20:36;;;;;;;102.00;42.27;;;1.00;99.90;;;;;;8265578;28;20197;-66
2023/01/23 21:24:37;;;;;;;116.67;42.90;;;1.00;99.90;;;;;;8273811;28;20188;-66